AirNav   Air Wisconsin Up To $57,000 Bonus
 
 1473 users online  

SN95 Roberts Air Field
Sylvia, Kansas, USA

GOING TO SYLVIA?


FAA INFORMATION EFFECTIVE 15 JULY 2021

Location

FAA Identifier: SN95
Lat/Long: 37-58-39.0510N 098-24-15.2610W
37-58.650850N 098-24.254350W
37.9775142,-98.4042392
(estimated)
Elevation: 1765 ft. / 538 m (estimated)
Variation: 07E (1985)
From city: 2 miles NE of SYLVIA, KS
Time zone: UTC -5 (UTC -6 during Standard Time)
Zip code: 67581

Airport Operations

Airport use: Private use. Permission required prior to landing
Activation date: 09/1976
Control tower: no
ARTCC: KANSAS CITY CENTER
FSS: WICHITA FLIGHT SERVICE STATION
Attendance: IREG
Wind indicator: yes
Segmented circle: no
Lights: TO ACTVT LIRL RW 17/35 KEY 122.7 5 TIMES.
Beacon: white-green (lighted land airport)
FOR ROTG BCN KEY 122.7 5 TIMES.

Airport Communications

UNICOM: 122.8

Nearby radio navigation aids

VOR radial/distance  VOR name  Freq  Var
HUTr263/22.3HUTCHINSON VOR/DME116.8004E

Airport Services

Parking: tiedowns
Airframe service: MINOR
Powerplant service: MINOR

Runway Information

Runway 17/35

Dimensions: 2250 x 90 ft. / 686 x 27 m
Surface: concrete/turf, in good condition
CENTER 32 FT. CONC FOR ENTIRE LGTH.
Runway edge lights: low intensity
RUNWAY 17  RUNWAY 35
Traffic pattern: leftleft
Markings: numbers only, in good conditionnumbers only, in good condition
Obstructions: 35 ft. trees, 1300 ft. from runway, 31:1 slope to clear
+4' FENCE AT 22 FT.
35 ft. trees, 1300 ft. from runway, 50 ft. left of centerline, 31:1 slope to clear
+19' ROAD AT 165 FT.

Runway 13/31

Dimensions: 3150 x 95 ft. / 960 x 29 m
Surface: turf, in fair condition
RUNWAY 13  RUNWAY 31
Traffic pattern: leftleft
Obstructions: 5 ft. fence, 40 ft. from runway, 8:1 slope to clear19 ft. road, 120 ft. from runway, 6:1 slope to clear

Airport Ownership and Management from official FAA records

Ownership: Privately-owned
Owner: L. J. ROBERTS, JR.
RT 1
SYLVIA, KS 67581
Phone 316-486-3445
Manager: L.S. ROBERTS JR.
RT 1
SYLVIA, KS 67581
Phone 316-486-3445

Airport Operational Statistics

Aircraft based on the field: 6
Single engine airplanes: 5
Multi engine airplanes: 1
    
Aircraft operations: avg 25/week *
77% local general aviation
23% transient general aviation
* for 12-month period ending 05 May 1992

Additional Remarks

FOR CD CTC KANSAS CITY ARTCC AT 913-254-8508.

Instrument Procedures

There are no published instrument procedures at SN95.

Some nearby airports with instrument procedures:

9K8 - Kingman Airport/Clyde Cessna Field (23 nm SE)
KPTT - Pratt Regional Airport (23 nm SW)
KLYO - Lyons-Rice County Municipal Airport (23 nm N)
KHUT - Hutchinson Regional Airport (26 nm E)
KGBD - Great Bend Municipal Airport (31 nm NW)
 
Loc | Ops | Rwys | IFR | FBO | Links
Com | Nav | Svcs | Stats | Notes
Area around SN95 (Roberts Air Field)
 
Road maps at: MapQuest Bing Google
 
Aerial photo
No photo
 
Sectional chart

 
Airport distance calculator
Flying to Roberts Air Field? Find the distance to fly.

From to SN95

Sunrise and sunset
Times for 05-Aug-2021
 Local
(UTC-5)
 Zulu
(UTC)
Morning civil twilight06:1211:12
Sunrise06:4111:41
Sunset20:3801:38
Evening civil twilight21:0702:07

Current date and time
Zulu (UTC)  05-Aug-2021 14:48:08
Local (UTC-5)  05-Aug-2021 09:48:08
 
METAR
KPTT 
23nm SW 
051435Z AUTO 21004KT 10SM CLR 26/15 A3011 RMK AO2 T02590152
KLYO 
23nm N 
051435Z AUTO 17004KT 10SM CLR 24/17 A3008 RMK AO2 T02440171
KHUT 
26nm E 
051352Z 21006KT 9SM FEW100 24/16 A3008 RMK AO2 SLP163 T02440156
KGBD 
31nm NW 
051356Z AUTO 21005KT 10SM CLR 22/17 A3010 RMK AO2 SLP175 T02220172
KP28 
42nm S 
051356Z AUTO 21003KT 23/17 A3010 RMK AO1 SLP178 T02330167 $
TAF
KHUT 
26nm E 
051126Z 0512/0612 VRB04KT P6SM SCT035 BKN100 FM051700 20008KT P6SM FEW060 SCT200 FM052100 19011KT P6SM FEW080 SCT150 FM060100 17010KT P6SM FEW050 FEW250
KGBD 
31nm NW 
051126Z 0512/0612 23005KT P6SM FEW035 BKN100 FM051600 22008KT P6SM FEW060 SCT200 FM052300 18010KT P6SM FEW090 FEW250
NOTAMs
Click for the latest NOTAMs
NOTAMs are issued by the DoD/FAA and will open in a separate window not controlled by AirNav.

 

 
 

Would you like to see your business listed on this page?

 If your business provides an interesting product or service to pilots, flight crews, aircraft, or users of the Roberts Air Field, you should consider listing it here.  To start the listing process, click on the button below
 
Add a business
 

Other Pages about Roberts Air Field

Update a link
 
Copyright © AirNav, LLC. All rights reserved. Privacy Policy  Contact